Custom Search

Airport METAR Reports

 

YMAV - Avalon Airport, Australia
Distance from station: 0 0km
Updated: 15/12/2017 09:00
Overcast
Overcast
 Wind from SSE
Wind: SSE 2 km/h
Temperature: 18°C
Dew Point: 12°C
Humidity: 68%
Barometer: 1013 hPa
Clouds: Overcast
Visibility: 10 km
Cloud details: Mostly cloudy 732 m
Overcast 945 m
2017/12/14 22:00 YMAV 142200Z AUTO 15001KT 9999 // BKN024 OVC031 18/12 Q1013
YMML - Melbourne Intl A, Australia
Distance from station: NE 50km
Updated: 15/12/2017 09:00
Partly cloudy
Partly cloudy
 Wind from SSE
Wind: SSE 11 km/h
Temperature: 17°C
Dew Point: 10°C
Humidity: 64%
Barometer: 1013 hPa
Clouds: Partly cloudy
Visibility: 10 km
Cloud details: Partly cloudy 671 m
2017/12/14 22:00 YMML 142200Z 16006KT 130V200 9999 SCT022 17/10 Q1013 NOSIG
YMEN - Melbourne/Essend, Australia
Distance from station: NE 51km
Updated: 15/12/2017 09:00
Clear
Clear
 Wind from S
Wind: S 9 km/h
Temperature: 17°C
Dew Point: 10°C
Humidity: 64%
Barometer: 1013 hPa
Clouds: Clear
Visibility: 10 km
2017/12/14 22:00 YMEN 142200Z AUTO 17005KT 9999 // NCD 17/10 Q1013
 
YWGT - Wangaratta Arp, Australia
Distance from station: NE 241km
Updated: 15/12/2017 09:00
Clear
Clear
 Wind from SE
Wind: SE 7 km/h
Temperature: 24°C
Dew Point: 15°C
Humidity: 57%
Barometer: 1011 hPa
Clouds: Clear
Visibility: 10 km
2017/12/14 22:00 YWGT 142200Z AUTO 13004KT 9999 // NCD 24/15 Q1011
YMAY - Albury Airport, Australia
Distance from station: NE 308km
Updated: 15/12/2017 09:00
Clear
Clear
 Wind from ENE
Wind: ENE 9 km/h
Temperature: 26°C
Dew Point: 16°C
Humidity: 54%
Barometer: 1011 hPa
Clouds: Clear
Visibility: 10 km
2017/12/14 22:00 YMAY 142200Z AUTO 07005KT 030V100 9999 // NCD 26/16 Q1011
YMTG - Mount Gambier, Australia
Distance from station: W 326km
Updated: 15/12/2017 09:00
Clear
Clear
 Wind from N
Wind: N 9 km/h
Temperature: 16°C
Dew Point: 12°C
Humidity: 77%
Barometer: 1013 hPa
Clouds: Clear
Visibility: 10 km
2017/12/14 22:00 YMTG 142200Z AUTO 36005KT 9999 // NCD 16/12 Q1013
 
YNAR - Narrandera, Australia
Distance from station: NNE 413km
Updated: 15/12/2017 09:00

 Wind from NE
Wind: NE 4 km/h
Temperature: 25°C
Dew Point: 16°C
Humidity: 57%
Barometer: 1011 hPa
2017/12/14 22:00 YNAR 142200Z AUTO 05002KT //// // ////// 25/16 Q1011
YSWG - Wagga Wagga(Cv/M, Australia
Distance from station: NE 418km
Updated: 15/12/2017 09:00
Clear
Clear
 Wind from E
Wind: E 9 km/h
Temperature: 24°C
Dew Point: 17°C
Humidity: 65%
Barometer: 1011 hPa
Clouds: Clear
Visibility: 10 km
2017/12/14 22:00 YSWG 142200Z AUTO 08005KT 9999 // NCD 24/17 Q1011
YCOM - Cooma Snowy Mtns, Australia
Distance from station: ENE 441km
Updated: 15/12/2017 09:00
Partly cloudy
Partly cloudy
 Wind from NNE
Wind: NNE 20 km/h
Temperature: 19°C
Dew Point: 15°C
Humidity: 78%
Barometer: 1014 hPa
Clouds: Partly cloudy
Visibility: 10 km
Cloud details: Partly cloudy 2835 m
2017/12/14 22:00 YCOM 142200Z AUTO 03011KT 9999 // SCT093 19/15 Q1014
 
YGTH - Griffith Arpt, Australia
Distance from station: NNE 444km
Updated: 15/12/2017 09:00
Partly cloudy
Partly cloudy
 Wind from ESE
Wind: ESE 6 km/h
Temperature: 24°C
Dew Point: 15°C
Humidity: 57%
Barometer: 1011 hPa
Clouds: Partly cloudy
Visibility: 10 km
Cloud details: Partly cloudy 3505 m
2017/12/14 22:00 YGTH 142200Z AUTO 12003KT 9999 // SCT115 24/15 Q1011
YMLT - Launceston Airpo, Australia
Distance from station: SSE 451km
Updated: 15/12/2017 09:00
Clear
Clear
 Wind from N
Wind: N 13 km/h
Temperature: 15°C
Dew Point: 6°C
Humidity: 55%
Barometer: 1011 hPa
Clouds: Clear
Visibility: 10 km
2017/12/14 22:00 YMLT 142200Z AUTO 35007KT 9999 // NCD 15/06 Q1011
YMIA - Mildura Arpt, Australia
Distance from station: NNW 474km
Updated: 15/12/2017 09:00
Clear
Clear
 Wind from SE
Wind: SE 15 km/h
Temperature: 20°C
Dew Point: 10°C
Humidity: 53%
Barometer: 1013 hPa
Clouds: Clear
Visibility: 10 km
2017/12/14 22:00 YMIA 142200Z AUTO 14008KT 9999 // NCD 20/10 Q1013
 
YMER - Merimbula Arpt, Australia
Distance from station: ENE 494km
Updated: 15/12/2017 09:00
Overcast
Overcast
 Wind from calm
Wind: Calm
Temperature: 18°C
Dew Point: 14°C
Humidity: 78%
Barometer: 1014 hPa
Clouds: Overcast
Visibility: 10 km
Cloud details: Overcast 792 m
2017/12/14 22:00 YMER 142200Z AUTO 00000KT 9999 // OVC026 18/14 Q1014
YSCB - Canberra (civ/Mi, Australia
Distance from station: NE 518km
Updated: 15/12/2017 09:00
Mostly cloudy
Mostly cloudy
 Wind from NE
Wind: NE 7 km/h
Temperature: 19°C
Dew Point: 17°C
Humidity: 88%
Barometer: 1015 hPa
Clouds: Mostly cloudy
Visibility: 10 km
Cloud details: Few Clouds 549 m
Partly cloudy 914 m
Mostly cloudy 3658 m
2017/12/14 22:00 YSCB 142200Z 04004KT 9999 FEW018 SCT030 BKN120 19/17 Q1015 NOSIG
YMHB - Hobart/Tasmania, Australia
Distance from station: SSE 590km
Updated: 15/12/2017 09:00
Mostly cloudy
Mostly cloudy
 Wind from NW
Wind: NW 24 km/h
Temperature: 16°C
Dew Point: 3°C
Humidity: 42%
Barometer: 1011 hPa
Clouds: Mostly cloudy
Visibility: 10 km
Cloud details: Few Clouds 1219 m
Mostly cloudy 8230 m
2017/12/14 22:00 YMHB 142200Z 32013KT 9999 FEW040 BKN270 16/03 Q1011